Time;durP1;ratioP1;P1;durP2;ratioP2;P2;SDS_P1;SDS_P2;PMS_P1;PMS_P2;Temp;Humidity;BMP_temperature;BMP_pressure;BME280_temperature;BME280_humidity;BME280_pressure;Samples;Min_cycle;Max_cycle;Signal;HPM_P1;HPM_P2
2022/09/28 00:02:21;;;;;;;;;;;;;;;23.39;nan;100429.22;5047889;28;969;-53
2022/09/28 00:04:48;;;;;;;;;;;;;;;23.36;nan;100429.44;5052202;28;738;-54
2022/09/28 00:07:14;;;;;;;;;;;;;;;23.37;nan;100424.97;5055671;28;1031;-50
2022/09/28 00:09:42;;;;;;;;;;;;;;;23.30;nan;100424.63;5052740;28;973;-48
2022/09/28 00:12:09;;;;;;;;;;;;;;;23.31;nan;100421.00;5036104;28;1980;-48
2022/09/28 00:14:35;;;;;;;;;;;;;;;23.30;nan;100416.66;5036207;28;914;-49
2022/09/28 00:17:02;;;;;;;;;;;;;;;23.28;nan;100415.94;5036114;28;1197;-49
2022/09/28 00:19:29;;;;;;;;;;;;;;;23.23;nan;100418.09;5036172;28;751;-49
2022/09/28 00:21:55;;;;;;;;;;;;;;;23.23;nan;100422.56;5035972;28;1249;-51
2022/09/28 00:24:22;;;;;;;;;;;;;;;23.27;nan;100410.72;5035979;28;926;-51
2022/09/28 00:26:54;;;;;;;;;;;;;;;23.25;nan;100412.66;5035955;28;1329;-50
2022/09/28 00:29:27;;;;;;;;;;;;;;;23.23;nan;100415.44;5051293;28;840;-50
2022/09/28 00:32:01;;;;;;;;;;;;;;;23.22;nan;100405.75;5036098;28;1906;-50
2022/09/28 00:34:31;;;;;;;;;;;;;;;23.22;nan;100400.44;5036005;28;803;-51
2022/09/28 00:37:01;;;;;;;;;;;;;;;23.20;nan;100391.78;5035808;28;1288;-51
2022/09/28 00:39:30;;;;;;;;;;;;;;;23.19;nan;100387.41;5035927;28;795;-54
2022/09/28 00:41:57;;;;;;;;;;;;;;;23.19;nan;100395.38;5035208;28;1246;-51
2022/09/28 00:44:24;;;;;;;;;;;;;;;23.14;nan;100386.09;5035052;28;706;-48
2022/09/28 00:46:56;;;;;;;;;;;;;;;23.12;nan;100383.59;5035806;28;1289;-48
2022/09/28 00:49:31;;;;;;;;;;;;;;;23.08;nan;100379.47;5035368;28;864;-47
2022/09/28 00:51:58;;;;;;;;;;;;;;;23.09;nan;100378.53;5050395;28;1918;-52
2022/09/28 00:54:24;;;;;;;;;;;;;;;23.09;nan;100390.94;5035347;28;731;-49
2022/09/28 00:56:51;;;;;;;;;;;;;;;23.08;nan;100387.44;5035171;28;1302;-49
2022/09/28 00:59:18;;;;;;;;;;;;;;;23.08;nan;100382.13;5035512;28;843;-52
2022/09/28 01:01:44;;;;;;;;;;;;;;;23.06;nan;100373.47;5035108;28;1302;-51
2022/09/28 01:04:11;;;;;;;;;;;;;;;23.09;nan;100372.34;5035291;28;750;-50
2022/09/28 01:06:39;;;;;;;;;;;;;;;23.05;nan;100363.78;5035217;28;1191;-51
2022/09/28 01:09:07;;;;;;;;;;;;;;;23.08;nan;100363.53;5035036;28;746;-52
2022/09/28 01:11:35;;;;;;;;;;;;;;;23.07;nan;100361.84;5035045;28;1910;-49
2022/09/28 01:14:02;;;;;;;;;;;;;;;23.03;nan;100362.22;5035431;28;966;-54
2022/09/28 01:16:29;;;;;;;;;;;;;;;23.02;nan;100353.41;5034877;28;1189;-52
2022/09/28 01:18:55;;;;;;;;;;;;;;;23.00;nan;100350.03;5049664;28;1213;-53
2022/09/28 01:21:23;;;;;;;;;;;;;;;23.03;nan;100356.91;5055103;28;1267;-50
2022/09/28 01:24:00;;;;;;;;;;;;;;;23.04;nan;100362.09;5055031;28;921;-54
2022/09/28 01:26:45;;;;;;;;;;;;;;;23.01;nan;100357.03;5054946;28;1264;-51
2022/09/28 01:29:12;;;;;;;;;;;;;;;23.03;nan;100351.59;5054614;28;727;-49
2022/09/28 01:31:41;;;;;;;;;;;;;;;22.99;nan;100355.47;5054526;28;1910;-52
2022/09/28 01:34:19;;;;;;;;;;;;;;;22.98;nan;100353.81;5054915;28;1058;-48
2022/09/28 01:36:49;;;;;;;;;;;;;;;22.98;nan;100359.94;5054545;28;1275;-49
2022/09/28 01:39:23;;;;;;;;;;;;;;;22.99;nan;100356.31;5054454;28;1018;-51
2022/09/28 01:41:52;;;;;;;;;;;;;;;22.97;nan;100352.09;5054621;28;1255;-50
2022/09/28 01:44:20;;;;;;;;;;;;;;;22.94;nan;100347.03;5053835;28;871;-49
2022/09/28 01:46:47;;;;;;;;;;;;;;;22.91;nan;100345.47;5054640;28;1173;-47
2022/09/28 01:49:30;;;;;;;;;;;;;;;22.92;nan;100349.78;5054588;28;956;-48
2022/09/28 01:52:05;;;;;;;;;;;;;;;22.92;nan;100348.97;5054129;28;1910;-47
2022/09/28 01:54:37;;;;;;;;;;;;;;;22.92;nan;100349.78;5054212;28;680;-50
2022/09/28 01:57:11;;;;;;;;;;;;;;;22.92;nan;100339.16;5054253;28;1399;-49
2022/09/28 01:59:42;;;;;;;;;;;;;;;22.88;nan;100343.06;5054014;28;688;-51
2022/09/28 02:02:15;;;;;;;;;;;;;;;22.85;nan;100338.00;5054159;28;1295;-49
2022/09/28 02:04:46;;;;;;;;;;;;;;;22.85;nan;100320.25;5053914;28;925;-50
2022/09/28 02:07:17;;;;;;;;;;;;;;;22.83;nan;100329.28;5054114;28;1314;-47
2022/09/28 02:09:46;;;;;;;;;;;;;;;22.88;nan;100323.63;5054133;28;715;-48
2022/09/28 02:12:19;;;;;;;;;;;;;;;22.84;nan;100318.56;5053591;28;1910;-54
2022/09/28 02:14:48;;;;;;;;;;;;;;;22.85;nan;100314.94;5053610;28;722;-51
2022/09/28 02:17:15;;;;;;;;;;;;;;;22.85;nan;100312.28;5053783;28;1099;-50
2022/09/28 02:19:42;;;;;;;;;;;;;;;22.83;nan;100308.91;5053944;28;985;-51
2022/09/28 02:22:11;;;;;;;;;;;;;;;22.82;nan;100304.56;5054119;28;1312;-52
2022/09/28 02:24:56;;;;;;;;;;;;;;;22.81;nan;100299.38;5053912;28;801;-50
2022/09/28 02:27:28;;;;;;;;;;;;;;;22.80;nan;100293.22;5053883;28;1036;-53
2022/09/28 02:29:55;;;;;;;;;;;;;;;22.81;nan;100286.09;5053104;28;1367;-52
2022/09/28 02:32:23;;;;;;;;;;;;;;;22.77;nan;100276.69;5053673;28;1906;-47
2022/09/28 02:34:49;;;;;;;;;;;;;;;22.79;nan;100280.06;5053601;28;1284;-49
2022/09/28 02:37:16;;;;;;;;;;;;;;;22.77;nan;100276.69;5053570;28;1191;-47
2022/09/28 02:39:43;;;;;;;;;;;;;;;22.75;nan;100279.47;5053403;28;742;-52
2022/09/28 02:42:16;;;;;;;;;;;;;;;22.73;nan;100280.56;5052204;28;1240;-50
2022/09/28 02:45:09;;;;;;;;;;;;;;;22.75;nan;100265.34;5053170;28;737;-48
2022/09/28 02:47:47;;;;;;;;;;;;;;;22.73;nan;100264.63;5052429;28;1359;-50
2022/09/28 02:50:33;;;;;;;;;;;;;;;22.76;nan;100257.28;5053151;28;1548;-51
2022/09/28 02:52:59;;;;;;;;;;;;;;;22.76;nan;100254.63;5051925;28;940;-48
2022/09/28 02:55:36;;;;;;;;;;;;;;;22.77;nan;100258.94;5052219;28;1200;-49
2022/09/28 02:58:26;;;;;;;;;;;;;;;22.77;nan;100250.13;5053215;28;1100;-51
2022/09/28 03:00:53;;;;;;;;;;;;;;;22.79;nan;100242.91;5051769;28;1225;-52
2022/09/28 03:03:24;;;;;;;;;;;;;;;22.78;nan;100241.19;5053535;28;1050;-51
2022/09/28 03:06:00;;;;;;;;;;;;;;;22.80;nan;100239.25;5084734;28;1268;-52
2022/09/28 03:08:35;;;;;;;;;;;;;;;22.78;nan;100238.53;5053513;28;1127;-52
2022/09/28 03:11:12;;;;;;;;;;;;;;;22.79;nan;100238.44;5053041;28;1913;-52
2022/09/28 03:13:39;;;;;;;;;;;;;;;22.80;nan;100245.41;5053074;28;1160;-51
2022/09/28 03:16:07;;;;;;;;;;;;;;;22.78;nan;100235.91;5052912;28;1237;-53
2022/09/28 03:18:34;;;;;;;;;;;;;;;22.79;nan;100249.06;5053252;28;1169;-51
2022/09/28 03:21:02;;;;;;;;;;;;;;;22.79;nan;100249.06;5052585;28;1271;-49
2022/09/28 03:23:29;;;;;;;;;;;;;;;22.75;nan;100249.41;5052980;28;1279;-52
2022/09/28 03:25:56;;;;;;;;;;;;;;;22.77;nan;100252.78;5053051;28;1213;-48
2022/09/28 03:28:23;;;;;;;;;;;;;;;22.77;nan;100252.78;5052768;28;945;-48
2022/09/28 03:30:49;;;;;;;;;;;;;;;22.76;nan;100253.78;5052521;28;1905;-50
2022/09/28 03:33:16;;;;;;;;;;;;;;;22.77;nan;100253.63;5053004;28;1081;-51
2022/09/28 03:35:45;;;;;;;;;;;;;;;22.78;nan;100249.16;5052463;28;1291;-50
2022/09/28 03:38:11;;;;;;;;;;;;;;;22.73;nan;100252.22;5052765;28;1020;-50
2022/09/28 03:40:38;;;;;;;;;;;;;;;22.78;nan;100242.06;5053036;28;1246;-46
2022/09/28 03:43:05;;;;;;;;;;;;;;;22.77;nan;100234.19;5056156;28;1027;-49
2022/09/28 03:45:31;;;;;;;;;;;;;;;22.75;nan;100247.63;5056830;28;1211;-49
2022/09/28 03:47:59;;;;;;;;;;;;;;;22.76;nan;100237.84;5056912;28;1348;-52
2022/09/28 03:50:26;;;;;;;;;;;;;;;22.74;nan;100235.28;5056141;28;1426;-46
2022/09/28 03:52:53;;;;;;;;;;;;;;;22.75;nan;100241.44;5056716;28;1913;-50
2022/09/28 03:55:19;;;;;;;;;;;;;;;22.75;nan;100237.00;5056302;28;1201;-50
2022/09/28 03:57:52;;;;;;;;;;;;;;;22.73;nan;100238.09;5056902;28;1120;-50
2022/09/28 04:00:18;;;;;;;;;;;;;;;22.72;nan;100239.91;5056842;28;1279;-50
2022/09/28 04:02:45;;;;;;;;;;;;;;;22.73;nan;100233.63;5056488;28;1110;-50
2022/09/28 04:05:12;;;;;;;;;;;;;;;22.74;nan;100229.13;5056128;28;1217;-48
2022/09/28 04:07:38;;;;;;;;;;;;;;;22.73;nan;100220.34;5056596;28;949;-47
2022/09/28 04:10:05;;;;;;;;;;;;;;;22.77;nan;100218.25;5056026;28;1289;-50
2022/09/28 04:12:32;;;;;;;;;;;;;;;22.74;nan;100215.84;5056424;28;1914;-53
2022/09/28 04:14:59;;;;;;;;;;;;;;;22.74;nan;100211.41;5055615;28;1188;-52
2022/09/28 04:17:25;;;;;;;;;;;;;;;22.75;nan;100215.75;5056195;28;1108;-49
2022/09/28 04:19:52;;;;;;;;;;;;;;;22.75;nan;100212.25;5056183;28;1305;-49
2022/09/28 04:22:19;;;;;;;;;;;;;;;22.75;nan;100214.91;5056235;28;969;-51
2022/09/28 04:24:45;;;;;;;;;;;;;;;22.76;nan;100205.97;5056092;28;932;-50
2022/09/28 04:29:57;;;;;;;;;;;;;;;22.74;nan;100202.59;5055950;28;1371;-48
2022/09/28 04:32:24;;;;;;;;;;;;;;;22.77;nan;100205.00;5056012;28;1906;-53
2022/09/28 04:34:50;;;;;;;;;;;;;;;22.75;nan;100201.63;5055853;28;1295;-51
2022/09/28 04:37:17;;;;;;;;;;;;;;;22.74;nan;100192.81;5055850;28;980;-48
2022/09/28 04:39:44;;;;;;;;;;;;;;;22.76;nan;100190.03;5055775;28;910;-51
2022/09/28 04:42:13;;;;;;;;;;;;;;;22.73;nan;100198.25;5055925;28;1334;-48
2022/09/28 04:44:40;;;;;;;;;;;;;;;22.70;nan;100198.50;5055513;28;866;-46
2022/09/28 04:47:07;;;;;;;;;;;;;;;22.68;nan;100187.16;5055288;28;1361;-47
2022/09/28 04:49:37;;;;;;;;;;;;;;;22.66;nan;100186.44;5052254;28;1556;-45
2022/09/28 04:52:04;;;;;;;;;;;;;;;22.67;nan;100190.81;5041357;28;1902;-48
2022/09/28 04:54:31;;;;;;;;;;;;;;;22.66;nan;100194.41;5041938;28;1047;-46
2022/09/28 04:56:57;;;;;;;;;;;;;;;22.63;nan;100184.00;5054793;28;1224;-48
2022/09/28 04:59:24;;;;;;;;;;;;;;;22.61;nan;100189.47;5039019;28;1104;-48
2022/09/28 05:01:52;;;;;;;;;;;;;;;22.62;nan;100182.31;5035356;28;1314;-51
2022/09/28 05:04:19;;;;;;;;;;;;;;;22.64;nan;100183.06;5035070;28;671;-51
2022/09/28 05:06:51;;;;;;;;;;;;;;;22.61;nan;100170.88;5045775;28;1365;-52
2022/09/28 05:09:17;;;;;;;;;;;;;;;22.62;nan;100172.53;5055085;28;890;-49
2022/09/28 05:11:44;;;;;;;;;;;;;;;22.60;nan;100168.34;5054893;28;1910;-48
2022/09/28 05:14:11;;;;;;;;;;;;;;;22.58;nan;100164.97;5054658;28;753;-46
2022/09/28 05:16:38;;;;;;;;;;;;;;;22.60;nan;100165.69;5054757;28;1315;-47
2022/09/28 05:19:05;;;;;;;;;;;;;;;22.59;nan;100169.28;5054781;28;719;-52
2022/09/28 05:21:32;;;;;;;;;;;;;;;22.55;nan;100159.91;5038289;28;1257;-48
2022/09/28 05:23:59;;;;;;;;;;;;;;;22.55;nan;100165.22;5035018;28;775;-50
2022/09/28 05:26:25;;;;;;;;;;;;;;;22.48;nan;100174.66;5034947;28;1284;-45
2022/09/28 05:28:52;;;;;;;;;;;;;;;22.54;nan;100169.69;5037246;28;1387;-50
2022/09/28 05:31:19;;;;;;;;;;;;;;;22.49;nan;100165.72;5051625;28;1997;-48
2022/09/28 05:33:46;;;;;;;;;;;;;;;22.50;nan;100168.25;5054725;28;1131;-51
2022/09/28 05:36:12;;;;;;;;;;;;;;;22.49;nan;100163.06;5054217;28;1226;-50
2022/09/28 05:38:39;;;;;;;;;;;;;;;22.46;nan;100171.28;5054284;28;1250;-48
2022/09/28 05:41:06;;;;;;;;;;;;;;;22.46;nan;100152.72;5054618;28;1264;-50
2022/09/28 05:43:32;;;;;;;;;;;;;;;22.47;nan;100167.66;5054330;28;1162;-48
2022/09/28 05:45:59;;;;;;;;;;;;;;;22.49;nan;100155.13;5053608;28;1204;-52
2022/09/28 05:48:27;;;;;;;;;;;;;;;22.51;nan;100151.34;5053121;28;1746;-51
2022/09/28 05:50:54;;;;;;;;;;;;;;;22.51;nan;100151.34;5036123;28;1696;-50
2022/09/28 05:53:20;;;;;;;;;;;;;;;22.47;nan;100144.59;5036409;28;1981;-47
2022/09/28 05:55:47;;;;;;;;;;;;;;;22.50;nan;100138.19;5054052;28;1300;-52
2022/09/28 05:58:14;;;;;;;;;;;;;;;22.54;nan;100144.94;5054055;28;1029;-47
2022/09/28 06:00:41;;;;;;;;;;;;;;;22.54;nan;100137.84;5048807;28;1422;-46
2022/09/28 06:03:12;;;;;;;;;;;;;;;22.58;nan;100149.06;5056645;28;1072;-49
2022/09/28 06:05:39;;;;;;;;;;;;;;;22.62;nan;100146.00;5053703;28;1367;-50
2022/09/28 06:08:07;;;;;;;;;;;;;;;22.65;nan;100144.94;5037508;28;939;-47
2022/09/28 06:10:33;;;;;;;;;;;;;;;22.63;nan;100142.38;5051860;28;1359;-49
2022/09/28 06:13:00;;;;;;;;;;;;;;;22.61;nan;100138.19;5044086;28;1914;-47
2022/09/28 06:15:28;;;;;;;;;;;;;;;22.58;nan;100133.97;5032092;28;1217;-47
2022/09/28 06:17:59;;;;;;;;;;;;;;;22.59;nan;100129.47;5035845;28;1192;-50
2022/09/28 06:20:27;;;;;;;;;;;;;;;22.58;nan;100136.63;5050016;28;1394;-49
2022/09/28 06:22:54;;;;;;;;;;;;;;;22.50;nan;100148.81;5050647;28;1207;-52
2022/09/28 06:25:22;;;;;;;;;;;;;;;22.49;nan;100149.81;5050653;28;1347;-48
2022/09/28 06:27:53;;;;;;;;;;;;;;;22.52;nan;100147.75;5049244;28;1116;-52
2022/09/28 06:30:20;;;;;;;;;;;;;;;22.55;nan;100151.97;5048689;28;1273;-45
2022/09/28 06:32:46;;;;;;;;;;;;;;;22.61;nan;100157.59;5050283;28;1914;-53
2022/09/28 06:35:14;;;;;;;;;;;;;;;22.67;nan;100150.97;5050141;28;1366;-51
2022/09/28 06:37:43;;;;;;;;;;;;;;;22.63;nan;100153.00;5043505;28;1569;-51
2022/09/28 06:40:09;;;;;;;;;;;;;;;22.71;nan;100147.09;5047795;28;1244;-48
2022/09/28 06:42:36;;;;;;;;;;;;;;;22.68;nan;100150.00;5046392;28;1255;-46
2022/09/28 06:45:03;;;;;;;;;;;;;;;22.66;nan;100147.47;5044652;28;1613;-49
2022/09/28 06:47:32;;;;;;;;;;;;;;;22.65;nan;100136.97;5048036;28;1016;-44
2022/09/28 06:49:59;;;;;;;;;;;;;;;22.66;nan;100151.94;5051998;28;1528;-49
2022/09/28 06:52:25;;;;;;;;;;;;;;;22.64;nan;100143.25;5052717;28;1985;-48
2022/09/28 06:54:52;;;;;;;;;;;;;;;22.64;nan;100152.06;5052252;28;1300;-47
2022/09/28 06:57:19;;;;;;;;;;;;;;;22.64;nan;100146.75;5044639;28;1568;-47
2022/09/28 06:59:45;;;;;;;;;;;;;;;22.69;nan;100160.50;5049071;28;1032;-50
2022/09/28 07:02:15;;;;;;;;;;;;;;;22.74;nan;100154.78;5052476;28;1328;-52
2022/09/28 07:04:42;;;;;;;;;;;;;;;22.69;nan;100152.53;5052270;28;1000;-49
2022/09/28 07:07:09;;;;;;;;;;;;;;;22.62;nan;100161.94;5052726;28;1213;-49
2022/09/28 07:09:36;;;;;;;;;;;;;;;22.66;nan;100171.38;5047958;28;1281;-48
2022/09/28 07:12:11;;;;;;;;;;;;;;;22.69;nan;100170.28;5043905;28;1975;-48
2022/09/28 07:14:38;;;;;;;;;;;;;;;22.66;nan;100167.88;5043790;28;1178;-48
2022/09/28 07:17:13;;;;;;;;;;;;;;;22.63;nan;100165.44;5043013;28;1627;-52
2022/09/28 07:19:40;;;;;;;;;;;;;;;22.61;nan;100159.41;5049269;28;889;-50
2022/09/28 07:22:07;;;;;;;;;;;;;;;22.61;nan;100172.69;5042091;28;1230;-52
2022/09/28 07:24:33;;;;;;;;;;;;;;;22.66;nan;100178.50;5049989;28;1018;-47
2022/09/28 07:27:03;;;;;;;;;;;;;;;22.68;nan;100179.19;5052146;28;1295;-48
2022/09/28 07:29:30;;;;;;;;;;;;;;;22.70;nan;100166.66;5051996;28;1063;-53
2022/09/28 07:31:57;;;;;;;;;;;;;;;22.70;nan;100175.47;5052292;28;1910;-50
2022/09/28 07:34:23;;;;;;;;;;;;;;;22.70;nan;100170.16;5049250;28;1003;-47
2022/09/28 07:36:57;;;;;;;;;;;;;;;22.72;nan;100184.13;5041935;28;1375;-50
2022/09/28 07:39:24;;;;;;;;;;;;;;;22.75;nan;100180.38;5051288;28;1043;-47
2022/09/28 07:41:51;;;;;;;;;;;;;;;22.72;nan;100188.59;5051704;28;1165;-44
2022/09/28 07:44:22;;;;;;;;;;;;;;;22.73;nan;100188.50;5050726;28;984;-47
2022/09/28 07:46:49;;;;;;;;;;;;;;;22.76;nan;100187.41;5049538;28;1493;-48
2022/09/28 07:49:18;;;;;;;;;;;;;;;22.80;nan;100194.97;5040252;28;1256;-50
2022/09/28 07:51:44;;;;;;;;;;;;;;;22.80;nan;100192.31;5041318;28;1651;-47
2022/09/28 07:54:11;;;;;;;;;;;;;;;22.79;nan;100192.44;5041256;28;1910;-48
2022/09/28 07:56:38;;;;;;;;;;;;;;;22.80;nan;100200.28;5039742;28;1296;-46
2022/09/28 07:59:04;;;;;;;;;;;;;;;22.79;nan;100200.41;5046613;28;969;-47
2022/09/28 08:01:31;;;;;;;;;;;;;;;22.79;nan;100200.41;5051818;28;1304;-46
2022/09/28 08:03:58;;;;;;;;;;;;;;;22.84;nan;100207.03;5048666;28;1179;-46
2022/09/28 08:06:24;;;;;;;;;;;;;;;22.82;nan;100210.78;5033577;28;1320;-48
2022/09/28 08:08:55;;;;;;;;;;;;;;;22.81;nan;100219.72;5041110;28;1462;-49
2022/09/28 08:11:21;;;;;;;;;;;;;;;22.78;nan;100219.97;5071316;28;1264;-54
2022/09/28 08:13:49;;;;;;;;;;;;;;;22.79;nan;100222.50;5066036;28;1981;-51
2022/09/28 08:16:16;;;;;;;;;;;;;;;22.77;nan;100205.00;5051545;28;1265;-49
2022/09/28 08:18:43;;;;;;;;;;;;;;;22.77;nan;100213.81;5051736;28;1183;-47
2022/09/28 08:23:55;;;;;;;;;;;;;;;22.76;nan;100227.22;5044492;28;964;-49
2022/09/28 08:26:22;;;;;;;;;;;;;;;22.77;nan;100229.72;5060059;28;1269;-51
2022/09/28 08:28:49;;;;;;;;;;;;;;;22.78;nan;100223.47;5069564;28;1270;-51
2022/09/28 08:31:15;;;;;;;;;;;;;;;22.76;nan;100224.56;5055130;28;1196;-47
2022/09/28 08:33:42;;;;;;;;;;;;;;;22.75;nan;100225.53;5054640;28;1967;-50
2022/09/28 08:36:09;;;;;;;;;;;;;;;22.38;nan;100218.81;5052365;28;1354;-52
2022/09/28 08:38:36;;;;;;;;;;;;;;;22.25;nan;100221.63;5048187;28;1333;-51
2022/09/28 08:41:13;;;;;;;;;;;;;;;22.16;nan;100217.06;5069133;28;1244;-53
2022/09/28 08:43:58;;;;;;;;;;;;;;;22.06;nan;100222.22;5071202;28;1181;-48
2022/09/28 08:46:28;;;;;;;;;;;;;;;22.00;nan;100225.38;5054986;28;1206;-46
2022/09/28 08:49:00;;;;;;;;;;;;;;;22.05;nan;100228.50;5056845;28;1477;-54
2022/09/28 08:51:52;;;;;;;;;;;;;;;22.01;nan;100227.03;5066059;28;2239;-52
2022/09/28 08:54:22;;;;;;;;;;;;;;;22.33;nan;100221.84;5065188;28;1914;-48
2022/09/28 08:57:01;;;;;;;;;;;;;;;22.26;nan;100228.59;5054366;28;1209;-52
2022/09/28 08:59:36;;;;;;;;;;;;;;;22.21;nan;100221.03;5063552;28;1468;-53
2022/09/28 09:02:03;;;;;;;;;;;;;;;22.10;nan;100230.78;5057717;28;1575;-48
2022/09/28 09:04:31;;;;;;;;;;;;;;;22.11;nan;100225.34;5057727;28;1092;-38
2022/09/28 09:07:01;;;;;;;;;;;;;;;22.36;nan;100215.44;5074090;28;1315;-55
2022/09/28 09:09:28;;;;;;;;;;;;;;;22.50;nan;100215.16;5061905;28;1037;-56
2022/09/28 09:12:07;;;;;;;;;;;;;;;22.57;nan;100216.38;5052076;28;1169;-56
2022/09/28 09:14:46;;;;;;;;;;;;;;;22.61;nan;100212.50;5052183;28;1886;-55
2022/09/28 09:17:13;;;;;;;;;;;;;;;22.64;nan;100214.91;5052103;28;1375;-55
2022/09/28 09:19:43;;;;;;;;;;;;;;;22.66;nan;100226.28;5050987;28;1007;-55
2022/09/28 09:22:21;;;;;;;;;;;;;;;22.70;nan;100211.78;5052603;28;1197;-55
2022/09/28 09:24:49;;;;;;;;;;;;;;;22.68;nan;100209.25;5052876;28;1007;-53
2022/09/28 09:27:42;;;;;;;;;;;;;;;22.68;nan;100205.75;5054309;28;1057;-52
2022/09/28 09:30:17;;;;;;;;;;;;;;;22.70;nan;100203.81;5053991;28;1307;-56
2022/09/28 09:33:03;;;;;;;;;;;;;;;22.69;nan;100196.81;5051326;28;2003;-52
2022/09/28 09:35:40;;;;;;;;;;;;;;;22.72;nan;100199.22;5053609;28;1232;-56
2022/09/28 09:38:42;;;;;;;;;;;;;;;22.71;nan;100198.38;5053428;28;1079;-54
2022/09/28 09:41:08;;;;;;;;;;;;;;;22.77;nan;100191.72;5051806;28;1292;-56
2022/09/28 09:43:35;;;;;;;;;;;;;;;22.74;nan;100194.63;5052962;28;1215;-55
2022/09/28 09:46:02;;;;;;;;;;;;;;;22.73;nan;100192.94;5052455;28;1229;-54
2022/09/28 09:48:52;;;;;;;;;;;;;;;22.74;nan;100182.19;5052565;28;1206;-56
2022/09/28 09:51:25;;;;;;;;;;;;;;;22.75;nan;100183.03;5053376;28;1641;-55
2022/09/28 09:53:58;;;;;;;;;;;;;;;22.75;nan;100178.56;5053375;28;1979;-55
2022/09/28 09:56:37;;;;;;;;;;;;;;;22.74;nan;100176.88;5053555;28;1351;-54
2022/09/28 09:59:10;;;;;;;;;;;;;;;22.75;nan;100183.03;5053702;28;1000;-55
2022/09/28 10:01:38;;;;;;;;;;;;;;;22.75;nan;100170.63;5053543;28;1296;-56
2022/09/28 10:04:07;;;;;;;;;;;;;;;22.77;nan;100165.16;5053504;28;1058;-58
2022/09/28 10:06:36;;;;;;;;;;;;;;;22.74;nan;100152.97;5053501;28;1248;-54
2022/09/28 10:09:21;;;;;;;;;;;;;;;22.76;nan;100152.88;5052256;28;1003;-54
2022/09/28 10:11:49;;;;;;;;;;;;;;;22.74;nan;100155.63;5053655;28;1244;-54
2022/09/28 10:14:16;;;;;;;;;;;;;;;22.76;nan;100155.53;5053120;28;1914;-54
2022/09/28 10:16:46;;;;;;;;;;;;;;;22.77;nan;100159.84;5052853;28;1216;-54
2022/09/28 10:19:14;;;;;;;;;;;;;;;22.76;nan;100148.41;5051960;28;1000;-54
2022/09/28 10:21:42;;;;;;;;;;;;;;;22.75;nan;100159.16;5053125;28;1208;-53
2022/09/28 10:24:32;;;;;;;;;;;;;;;22.77;nan;100147.41;5052887;28;1007;-53
2022/09/28 10:27:03;;;;;;;;;;;;;;;22.76;nan;100145.75;5051781;28;1679;-54
2022/09/28 10:29:35;;;;;;;;;;;;;;;22.75;nan;100136.09;5053127;28;1070;-55
2022/09/28 10:32:16;;;;;;;;;;;;;;;22.72;nan;100133.69;5052618;28;1402;-55
2022/09/28 10:34:42;;;;;;;;;;;;;;;22.74;nan;100141.53;5052434;28;1915;-54
2022/09/28 10:37:13;;;;;;;;;;;;;;;22.75;nan;100140.56;5052818;28;1311;-57
2022/09/28 10:39:45;;;;;;;;;;;;;;;22.75;nan;100130.78;5052474;28;1055;-55
2022/09/28 10:42:17;;;;;;;;;;;;;;;22.76;nan;100131.63;5052310;28;1398;-52
2022/09/28 10:44:49;;;;;;;;;;;;;;;22.77;nan;100125.34;5032597;28;641;-55
2022/09/28 10:47:17;;;;;;;;;;;;;;;22.76;nan;100118.34;5032681;28;1032;-56
2022/09/28 10:49:47;;;;;;;;;;;;;;;22.74;nan;100120.28;5032594;28;945;-54
2022/09/28 10:52:46;;;;;;;;;;;;;;;22.75;nan;100121.97;5032933;28;1843;-55
2022/09/28 10:55:31;;;;;;;;;;;;;;;22.75;nan;100112.19;5031053;28;1276;-54
2022/09/28 10:57:59;;;;;;;;;;;;;;;22.72;nan;100119.56;5037923;28;1032;-55
2022/09/28 11:00:30;;;;;;;;;;;;;;;22.74;nan;100123.78;5052520;28;1280;-55
2022/09/28 11:02:57;;;;;;;;;;;;;;;22.74;nan;100120.28;5051946;28;1134;-56
2022/09/28 11:05:28;;;;;;;;;;;;;;;22.72;nan;100122.22;5052045;28;1314;-56
2022/09/28 11:08:01;;;;;;;;;;;;;;;22.74;nan;100122.94;5052233;28;1157;-55
2022/09/28 11:10:28;;;;;;;;;;;;;;;22.71;nan;100120.53;5052490;28;1213;-56
2022/09/28 11:12:56;;;;;;;;;;;;;;;22.71;nan;100112.56;5052176;28;1910;-55
2022/09/28 11:15:32;;;;;;;;;;;;;;;22.72;nan;100101.84;5051765;28;1270;-49
2022/09/28 11:18:17;;;;;;;;;;;;;;;22.76;nan;100107.75;5050594;28;938;-53
2022/09/28 11:20:44;;;;;;;;;;;;;;;22.71;nan;100101.94;5045814;28;1407;-47
2022/09/28 11:23:14;;;;;;;;;;;;;;;22.68;nan;100094.25;5048974;28;1025;-51
2022/09/28 11:25:42;;;;;;;;;;;;;;;22.70;nan;100092.31;5051965;28;1228;-50
2022/09/28 11:28:18;;;;;;;;;;;;;;;22.71;nan;100086.03;5052424;28;1060;-52
2022/09/28 11:30:48;;;;;;;;;;;;;;;22.75;nan;100076.84;5052112;28;1282;-52
2022/09/28 11:33:22;;;;;;;;;;;;;;;22.83;nan;100077.88;5052132;28;1906;-47
